Miller, NE (68858)

10:38 AM CDT on July 24, 2014 (GMT -0500)
Regency (KNEKEARN3) Elev 2224 ft | 40.72 °N, 99.08 °W | Change Station

Current weather conditions updated 3 seconds ago

Clear
Clear
73.8 °F
Feels Like 75 °F
N
19.7
Wind Variable Wind from SSE
Gusts 26.5 mph

Today is forecast to be Much Warmer than yesterday.

Today
High -- | Low -- °F
--% Chance of Precip.
Yesterday
High -- | Low -- °F
Precip. -- in
6:26 AM 9:01 PM
Waning Crescent, 5% visible
Pressure 30.02 in
Visibility 10.0 miles
Clouds Clear
Heat Index 75 °F
Dew Point 66 °F
Humidity 77%
Rainfall 0.00 in
Snow Depth Not available.
UV 5 out of 12
Pollen 6.90 out of 12
Air Quality Not available.
Flu Activity Not available.
METAR KLXN 241515Z AUTO 16016KT 10SM CLR 26/19 A3002 RMK AO2 T02550190

More Conditions Fewer Conditions

Pressure 30.02 in
Visibility 10.0 miles
Clouds Clear
Heat Index 75 °F
Dew Point 66 °F
Humidity 77%
Rainfall 0.00 in
Snow Depth Not available.
UV 5 out of 12
Pollen 6.90 out of 12
Air Quality Not available.
Flu Activity Not available.
METAR KLXN 241515Z AUTO 16016KT 10SM CLR 26/19 A3002 RMK AO2 T02550190

More Conditions Fewer Conditions

10-Day Weather Forecast

Almanac

Astronomy

Jul. 24, 2014 Rise Set
Actual Time 6:26 AM CDT 9:01 PM CDT
Civil Twilight 5:54 AM CDT 9:32 PM CDT
Nautical Twilight 5:14 AM CDT 10:12 PM CDT
Astronomical Twilight 4:30 AM CDT 10:56 PM CDT
Moon 4:35 AM CDT 7:17 PM CDT
Length of Visible Light 15h 38m
Length of Day
14h 35m
Tomorrow will be 1m 48s shorter.
Waning Crescent, 5% of the Moon is Illuminated
Today
Waning Crescent
Jul 26
New
Aug 3
First Quarter
Aug 10
Full
Aug 17
Last Quarter

Today's Extremes

State Highs State Lows

Community

WunderPhotos

Upload Photos

1,737,042 photos uploaded!

Nearby

Snow Depth

Station Depth Elevation
No new snow has been reported.

Earthquake Activity

City Distance Mag. Time & Date
No recent earthquake activity has been reported nearby.
Minimum magnitude displayed is 2.5.

Coastal Water Temperatures

Place Temperature
No Stations Reporting

Nearby Weather Stations

Station Location Temp. Heat Index Dew Point Humidity Wind Precip. Elev Updated Type
MesoWest ODESS1 , Odessa, NE 70 °F - - - North  at  - 0.00 in / hr 2215 ft 9:05 AM CDT MADIS
Regency, Kearney, NE 73.8 °F 75 °F 66 °F 77% SSE  at  19.7 mph 0.00 in / hr 2224 ft 10:38 AM CDT Rapid Fire
SW Kearney, Kearney, NE 77.7 °F 80 °F 68 °F 72% SSE  at  12.0 mph 0.00 in / hr 2159 ft 10:38 AM CDT Rapid Fire

Show More Stations Show Fewer Stations